createdAt,value
2022-11-22T00:03:52.204Z,55.4
2022-11-22T00:09:10.731Z,55.5
2022-11-22T00:14:29.451Z,55.5
2022-11-22T00:19:48.223Z,55.9
2022-11-22T00:25:07.006Z,55.5
2022-11-22T00:30:25.521Z,55.5
2022-11-22T00:35:44.085Z,56
2022-11-22T00:41:02.607Z,56
2022-11-22T00:46:21.050Z,56.3
2022-11-22T00:51:39.270Z,55.4
2022-11-22T00:56:57.515Z,55.4
2022-11-22T01:02:15.718Z,55.7
2022-11-22T01:07:34.167Z,56.2
2022-11-22T01:12:52.159Z,55.4
2022-11-22T01:18:10.619Z,55.5
2022-11-22T01:23:29.124Z,56.3
2022-11-22T01:28:47.629Z,56.6
2022-11-22T01:34:06.133Z,55.8
2022-11-22T01:39:24.071Z,56.4
2022-11-22T01:44:42.854Z,56
2022-11-22T01:50:01.030Z,56.5
2022-11-22T01:55:19.520Z,55.9
2022-11-22T02:00:37.895Z,56.2
2022-11-22T02:05:56.177Z,56.5
2022-11-22T02:11:14.663Z,56.2
2022-11-22T02:16:32.895Z,56.3
2022-11-22T02:21:51.114Z,56.7
2022-11-22T02:27:09.616Z,55.7
2022-11-22T02:32:28.391Z,56.7
2022-11-22T02:37:46.858Z,56.8
2022-11-22T02:43:05.573Z,56.2
2022-11-22T02:48:24.357Z,56.9
2022-11-22T02:53:42.254Z,56.1
2022-11-22T02:59:01.026Z,56.6
2022-11-22T03:04:19.544Z,55.9
2022-11-22T03:09:38.295Z,56
2022-11-22T03:14:57.075Z,55.8
2022-11-22T03:20:15.579Z,56
2022-11-22T03:25:34.309Z,56.5
2022-11-22T03:30:53.142Z,56.8
2022-11-22T03:36:11.341Z,57
2022-11-22T03:41:29.821Z,56.8
2022-11-22T03:46:48.329Z,56.8
2022-11-22T03:52:07.099Z,56.4
2022-11-22T03:57:25.860Z,56.8
2022-11-22T04:02:44.640Z,56.9
2022-11-22T04:08:03.413Z,56.3
2022-11-22T04:13:21.587Z,56
2022-11-22T04:18:39.832Z,57
2022-11-22T04:23:58.033Z,56.7
2022-11-22T04:29:16.507Z,56.9
2022-11-22T04:34:34.450Z,56
2022-11-22T04:39:52.670Z,56.7
2022-11-22T04:45:11.418Z,56.1
2022-11-22T04:50:29.635Z,56.6
2022-11-22T04:55:48.416Z,56.5
2022-11-22T05:01:07.142Z,55.7
2022-11-22T05:06:25.541Z,56.5
2022-11-22T05:11:44.081Z,56.4
2022-11-22T05:17:02.833Z,55.5
2022-11-22T05:22:21.314Z,56.2
2022-11-22T05:27:39.541Z,56.4
2022-11-22T05:32:57.721Z,55.3
2022-11-22T05:38:16.213Z,50.6
2022-11-22T05:43:34.734Z,45.9
2022-11-22T05:48:53.208Z,41.9
2022-11-22T05:54:11.409Z,49.1
2022-11-22T05:59:30.575Z,51.4
2022-11-22T06:04:49.184Z,52
2022-11-22T06:10:07.411Z,52.5
2022-11-22T06:15:25.876Z,52.6
2022-11-22T06:20:44.027Z,53.3
2022-11-22T06:26:02.819Z,53.6
2022-11-22T06:31:05.707Z,52.5
2022-11-22T06:36:24.188Z,53.1
2022-11-22T06:41:42.946Z,52.9
2022-11-22T06:47:01.451Z,52.9
2022-11-22T06:52:19.917Z,53.1
2022-11-22T06:57:38.135Z,53
2022-11-22T07:02:56.363Z,53.3
2022-11-22T07:08:15.317Z,52.3
2022-11-22T07:13:33.876Z,52.9
2022-11-22T07:18:52.114Z,52.8
2022-11-22T07:24:10.608Z,52.2
2022-11-22T07:29:30.525Z,53.1
2022-11-22T07:34:49.286Z,52.9
2022-11-22T07:40:07.204Z,52.3
2022-11-22T07:45:25.979Z,52.9
2022-11-22T07:50:44.235Z,52.4
2022-11-22T07:56:02.815Z,52.4
2022-11-22T08:01:21.252Z,52
2022-11-22T08:06:39.843Z,52.8
2022-11-22T08:11:58.257Z,53
2022-11-22T08:17:17.216Z,52.8
2022-11-22T08:22:35.185Z,53.1
2022-11-22T08:27:53.715Z,52.9
2022-11-22T08:33:12.049Z,53
2022-11-22T08:38:30.648Z,52.8
2022-11-22T08:43:49.033Z,52.8
2022-11-22T08:49:07.618Z,52.6
2022-11-22T08:54:26.507Z,52.8
2022-11-22T08:59:45.416Z,51.8
2022-11-22T09:05:03.889Z,51.8
2022-11-22T09:10:22.758Z,52.7
2022-11-22T09:15:41.061Z,51.9
2022-11-22T09:20:59.450Z,51.9
2022-11-22T09:26:17.833Z,51.8
2022-11-22T09:31:36.153Z,52.7
2022-11-22T09:36:54.916Z,52.1
2022-11-22T09:42:13.785Z,53
2022-11-22T09:47:32.070Z,52.2
2022-11-22T09:52:50.147Z,53
2022-11-22T09:58:08.489Z,52.9
2022-11-22T10:03:27.383Z,53
2022-11-22T10:08:46.039Z,52.6
2022-11-22T10:14:04.088Z,52.2
2022-11-22T10:19:22.449Z,53
2022-11-22T10:24:40.649Z,52.3
2022-11-22T10:29:59.199Z,53
2022-11-22T10:35:17.262Z,53.2
2022-11-22T10:40:35.905Z,52.1
2022-11-22T10:45:54.523Z,52.7
2022-11-22T10:51:13.129Z,52.9
2022-11-22T10:56:31.718Z,53.1
2022-11-22T11:01:50.060Z,52.2
2022-11-22T11:07:13.677Z,52.3
2022-11-22T11:12:32.064Z,53
2022-11-22T11:17:50.405Z,52.3
2022-11-22T11:23:17.357Z,52.7
2022-11-22T11:28:36.241Z,53
2022-11-22T11:33:54.842Z,53.9
2022-11-22T11:39:13.573Z,52.6
2022-11-22T11:44:33.142Z,52.4
2022-11-22T11:49:51.996Z,52.3
2022-11-22T11:55:10.994Z,53.1
2022-11-22T12:00:29.632Z,52.4
2022-11-22T12:05:48.219Z,52.6
2022-11-22T12:11:06.903Z,53.2
2022-11-22T12:16:25.815Z,53.3
2022-11-22T12:21:44.448Z,52.7
2022-11-22T12:27:03.042Z,53.5
2022-11-22T12:32:21.444Z,52.4
2022-11-22T12:37:40.067Z,52.5
2022-11-22T12:42:58.370Z,52.4
2022-11-22T12:48:16.748Z,52.4
2022-11-22T12:53:34.815Z,52.3
2022-11-22T12:58:53.158Z,53.2
2022-11-22T13:04:11.751Z,52.9
2022-11-22T13:09:30.609Z,52.4
2022-11-22T13:14:49.079Z,53.1
2022-11-22T13:20:07.438Z,53.2
2022-11-22T13:25:25.866Z,52.8
2022-11-22T13:30:44.136Z,52.3
2022-11-22T13:36:02.511Z,52.9
2022-11-22T13:41:21.116Z,53.1
2022-11-22T13:46:40.123Z,52.5
2022-11-22T13:51:58.749Z,52.3
2022-11-22T13:57:17.201Z,52.1
2022-11-22T14:02:35.538Z,53.1
2022-11-22T14:07:54.651Z,53.3
2022-11-22T14:13:13.683Z,53.2
2022-11-22T14:18:31.648Z,50.5
2022-11-22T14:23:50.229Z,51.9
2022-11-22T14:29:08.864Z,52.2
2022-11-22T14:34:27.159Z,52.6
2022-11-22T14:39:45.271Z,52.6
2022-11-22T14:45:03.857Z,52.9
2022-11-22T14:50:22.558Z,52.3
2022-11-22T14:55:40.951Z,53.1
2022-11-22T15:00:59.761Z,53
2022-11-22T15:09:52.791Z,52.5
2022-11-22T16:02:26.223Z,52.6
2022-11-22T16:07:44.310Z,53.2
2022-11-22T16:13:02.503Z,53.5
2022-11-22T16:18:21.389Z,52.4
2022-11-22T16:23:40.158Z,52.7
2022-11-22T16:28:59.199Z,53.5
2022-11-22T16:34:17.529Z,53.5
2022-11-22T16:39:35.472Z,52.9
2022-11-22T16:44:56.342Z,53.4
2022-11-22T16:50:17.031Z,52.6
2022-11-22T16:55:35.248Z,53.2
2022-11-22T17:00:53.968Z,49.2
2022-11-22T17:05:56.969Z,50.1
2022-11-22T17:11:15.164Z,51.6
2022-11-22T17:16:33.594Z,52.4
2022-11-22T17:21:39.076Z,52.4
2022-11-22T17:26:56.986Z,52.9
2022-11-22T17:32:15.710Z,52.8
2022-11-22T17:37:34.044Z,53.3
2022-11-22T17:42:52.527Z,52.7
2022-11-22T17:48:10.843Z,52.8
2022-11-22T17:53:29.680Z,53.4
2022-11-22T17:58:48.417Z,52.7
2022-11-22T18:04:07.163Z,54.3
2022-11-22T18:09:25.764Z,54.3
2022-11-22T18:14:44.519Z,53.6
2022-11-22T18:20:03.057Z,53.6
2022-11-22T18:25:21.245Z,53.5
2022-11-22T18:30:40.013Z,54.3
2022-11-22T18:35:58.967Z,54.2
2022-11-22T18:41:17.300Z,54.5
2022-11-22T18:46:36.041Z,53.8
2022-11-22T18:51:54.264Z,53.2
2022-11-22T18:57:12.674Z,53.8
2022-11-22T19:02:31.164Z,53.7
2022-11-22T19:07:49.708Z,53.3
2022-11-22T19:13:08.069Z,54.5
2022-11-22T19:18:31.437Z,53.7
2022-11-22T19:23:52.626Z,54.5
2022-11-22T19:28:55.460Z,53.7
2022-11-22T19:34:13.847Z,53.8
2022-11-22T19:39:37.799Z,54.1
2022-11-22T19:44:56.501Z,53.8
2022-11-22T19:50:14.959Z,55
2022-11-22T19:55:33.415Z,53.9
2022-11-22T20:00:51.968Z,54.9
2022-11-22T20:06:10.446Z,54.9
2022-11-22T20:11:29.191Z,54.9
2022-11-22T20:16:47.371Z,54.9
2022-11-22T20:22:05.564Z,54.9
2022-11-22T20:27:25.822Z,54.9
2022-11-22T20:32:44.050Z,54.9
2022-11-22T20:38:01.982Z,53.8
2022-11-22T20:43:20.105Z,55.4
2022-11-22T20:48:38.703Z,54.4
2022-11-22T20:53:57.144Z,53.6
2022-11-22T20:59:15.892Z,54.3
2022-11-22T21:04:34.760Z,55.1
2022-11-22T21:09:53.366Z,53.8
2022-11-22T21:15:11.936Z,54.9
2022-11-22T21:20:30.116Z,54.9
2022-11-22T21:25:48.319Z,54.1
2022-11-22T21:31:06.720Z,55
2022-11-22T21:36:25.614Z,54.5
2022-11-22T21:41:44.154Z,55.2
2022-11-22T21:47:02.627Z,55.2
2022-11-22T21:52:20.965Z,54.4
2022-11-22T21:57:39.428Z,54.4
2022-11-22T22:02:57.770Z,55
2022-11-22T22:08:16.474Z,54.2
2022-11-22T22:13:34.947Z,54.2
2022-11-22T22:18:53.837Z,55
2022-11-22T22:24:12.368Z,54.3
2022-11-22T22:29:32.477Z,54.3
2022-11-22T22:34:51.169Z,54.4
2022-11-22T22:40:09.793Z,55.2
2022-11-22T22:45:28.014Z,54.8
2022-11-22T22:50:46.797Z,54.3
2022-11-22T22:56:05.401Z,54.3
2022-11-22T23:01:23.613Z,54.7
2022-11-22T23:06:42.674Z,54.2
2022-11-22T23:12:00.822Z,55.1
2022-11-22T23:17:19.589Z,54.5
2022-11-22T23:22:38.138Z,55
2022-11-22T23:27:56.823Z,54.2
2022-11-22T23:33:15.287Z,55.2
2022-11-22T23:38:33.693Z,55.3
2022-11-22T23:43:52.280Z,54.4
2022-11-22T23:49:10.771Z,54.5
2022-11-22T23:54:29.500Z,54.5
2022-11-22T23:59:47.638Z,55.4
